createdAt,value
2018-12-22T00:00:03.041Z,11.54
2018-12-22T00:02:29.800Z,11.65
2018-12-22T00:04:56.532Z,11.61
2018-12-22T00:07:23.297Z,11.64
2018-12-22T00:09:50.041Z,11.75
2018-12-22T00:12:16.792Z,11.69
2018-12-22T00:14:43.528Z,11.61
2018-12-22T00:17:10.285Z,11.64
2018-12-22T00:19:37.115Z,11.67
2018-12-22T00:22:03.872Z,11.71
2018-12-22T00:24:30.620Z,11.85
2018-12-22T00:26:57.384Z,11.77
2018-12-22T00:29:24.132Z,11.64
2018-12-22T00:31:50.886Z,11.65
2018-12-22T00:34:17.652Z,11.70
2018-12-22T00:36:44.432Z,11.62
2018-12-22T00:39:11.172Z,11.64
2018-12-22T00:41:37.933Z,11.64
2018-12-22T00:44:04.688Z,11.61
2018-12-22T00:46:31.476Z,11.60
2018-12-22T00:48:58.262Z,11.67
2018-12-22T00:51:24.971Z,11.69
2018-12-22T00:53:51.727Z,11.69
2018-12-22T00:56:18.501Z,11.54
2018-12-22T00:58:45.237Z,11.60
2018-12-22T01:01:12.017Z,11.69
2018-12-22T01:03:38.753Z,11.57
2018-12-22T01:06:05.516Z,11.64
2018-12-22T01:08:32.256Z,11.91
2018-12-22T01:10:59.030Z,11.60
2018-12-22T01:13:25.788Z,11.70
2018-12-22T01:15:52.540Z,11.67
2018-12-22T01:18:19.297Z,11.63
2018-12-22T01:20:46.110Z,11.68
2018-12-22T01:23:12.864Z,11.84
2018-12-22T01:25:39.596Z,11.77
2018-12-22T01:28:06.352Z,11.62
2018-12-22T01:30:33.092Z,11.58
2018-12-22T01:32:59.840Z,11.69
2018-12-22T01:35:26.640Z,11.71
2018-12-22T01:37:53.391Z,11.68
2018-12-22T01:40:20.132Z,11.62
2018-12-22T01:42:47.164Z,11.58
2018-12-22T01:45:13.900Z,11.65
2018-12-22T01:47:40.660Z,11.71
2018-12-22T01:50:07.416Z,11.69
2018-12-22T01:52:34.172Z,11.73
2018-12-22T01:55:00.919Z,11.76
2018-12-22T01:57:27.689Z,11.77
2018-12-22T01:59:54.433Z,11.79
2018-12-22T02:02:21.249Z,11.67
2018-12-22T02:04:47.997Z,11.74
2018-12-22T02:07:14.764Z,11.66
2018-12-22T02:09:41.504Z,11.64
2018-12-22T02:12:08.260Z,11.55
2018-12-22T02:14:34.996Z,11.51
2018-12-22T02:17:01.760Z,11.48
2018-12-22T02:19:28.503Z,11.56
2018-12-22T02:21:55.264Z,11.65
2018-12-22T02:24:22.012Z,11.95
2018-12-22T02:26:48.760Z,11.58
2018-12-22T02:29:15.500Z,11.60
2018-12-22T02:31:42.253Z,11.50
2018-12-22T02:34:08.992Z,11.51
2018-12-22T02:36:35.756Z,11.49
2018-12-22T02:39:03.446Z,11.48
2018-12-22T02:41:30.200Z,11.60
2018-12-22T02:43:56.931Z,11.79
2018-12-22T02:46:23.696Z,11.65
2018-12-22T02:48:50.428Z,11.62
2018-12-22T02:51:17.184Z,11.55
2018-12-22T02:53:43.944Z,11.43
2018-12-22T02:56:10.713Z,11.31
2018-12-22T02:58:37.472Z,11.21
2018-12-22T03:01:04.294Z,11.36
2018-12-22T03:03:31.040Z,11.55
2018-12-22T03:05:57.792Z,11.42
2018-12-22T03:08:24.526Z,11.35
2018-12-22T03:10:51.284Z,11.35
2018-12-22T03:13:18.038Z,11.34
2018-12-22T03:15:44.777Z,11.22
2018-12-22T03:18:11.527Z,11.41
2018-12-22T03:20:38.257Z,11.27
2018-12-22T03:23:05.009Z,11.33
2018-12-22T03:25:31.737Z,11.25
2018-12-22T03:27:58.491Z,11.19
2018-12-22T03:30:25.222Z,11.19
2018-12-22T03:32:52.054Z,11.13
2018-12-22T03:35:18.784Z,10.98
2018-12-22T03:37:45.704Z,10.99
2018-12-22T03:40:12.490Z,11.13
2018-12-22T03:42:39.236Z,11.26
2018-12-22T03:45:05.974Z,11.17
2018-12-22T03:47:32.724Z,11.09
2018-12-22T03:49:59.460Z,11.10
2018-12-22T03:52:26.203Z,11.11
2018-12-22T03:54:52.965Z,11.12
2018-12-22T03:57:19.724Z,11.16
2018-12-22T03:59:46.546Z,11.24
2018-12-22T04:02:13.325Z,11.40
2018-12-22T04:04:40.133Z,11.44
2018-12-22T04:07:06.893Z,11.31
2018-12-22T04:09:33.656Z,11.27
2018-12-22T04:12:00.418Z,11.25
2018-12-22T04:14:27.152Z,11.19
2018-12-22T04:16:53.900Z,11.12
2018-12-22T04:19:20.771Z,11.09
2018-12-22T04:21:47.420Z,10.98
2018-12-22T04:24:14.149Z,10.79
2018-12-22T04:26:40.887Z,10.78
2018-12-22T04:29:07.642Z,10.80
2018-12-22T04:31:34.586Z,10.79
2018-12-22T04:34:01.309Z,10.77
2018-12-22T04:36:28.057Z,10.72
2018-12-22T04:38:54.810Z,10.70
2018-12-22T04:41:21.571Z,10.73
2018-12-22T04:43:48.353Z,10.68
2018-12-22T04:46:15.104Z,10.72
2018-12-22T04:48:41.841Z,10.72
2018-12-22T04:51:08.587Z,10.67
2018-12-22T04:53:35.342Z,10.72
2018-12-22T04:56:02.105Z,10.79
2018-12-22T04:58:28.872Z,10.88
2018-12-22T05:00:55.606Z,11.05
2018-12-22T05:03:22.357Z,11.09
2018-12-22T05:05:49.224Z,11.00
2018-12-22T05:08:15.836Z,10.84
2018-12-22T05:10:42.570Z,10.69
2018-12-22T05:13:09.328Z,10.62
2018-12-22T05:15:36.060Z,10.65
2018-12-22T05:18:02.808Z,10.63
2018-12-22T05:20:29.569Z,10.56
2018-12-22T05:22:56.325Z,10.56
2018-12-22T05:25:23.064Z,10.70
2018-12-22T05:27:49.832Z,10.79
2018-12-22T05:30:16.564Z,10.80
2018-12-22T05:32:43.316Z,10.86
2018-12-22T05:35:10.061Z,10.95
2018-12-22T05:37:36.815Z,11.04
2018-12-22T05:40:03.934Z,11.15
2018-12-22T05:42:30.687Z,11.22
2018-12-22T05:44:57.424Z,11.29
2018-12-22T05:47:24.188Z,11.38
2018-12-22T05:49:50.917Z,11.37
2018-12-22T05:52:17.768Z,11.40
2018-12-22T05:54:44.504Z,11.37
2018-12-22T05:57:11.261Z,11.39
2018-12-22T05:59:37.987Z,11.41
2018-12-22T06:02:04.760Z,11.39
2018-12-22T06:04:31.496Z,11.43
2018-12-22T06:06:58.253Z,11.40
2018-12-22T06:09:24.988Z,11.55
2018-12-22T06:11:51.732Z,11.52
2018-12-22T06:14:18.500Z,11.42
2018-12-22T06:16:45.236Z,11.43
2018-12-22T06:19:12.030Z,11.50
2018-12-22T06:21:38.764Z,11.43
2018-12-22T06:24:05.508Z,11.42
2018-12-22T06:26:32.260Z,11.30
2018-12-22T06:28:59.020Z,11.32
2018-12-22T06:31:25.760Z,11.27
2018-12-22T06:33:52.548Z,11.19
2018-12-22T06:36:19.339Z,11.06
2018-12-22T06:38:46.113Z,10.99
2018-12-22T06:41:12.871Z,10.88
2018-12-22T06:43:39.624Z,10.99
2018-12-22T06:46:06.362Z,10.87
2018-12-22T06:48:33.113Z,10.70
2018-12-22T06:50:59.872Z,10.74
2018-12-22T06:53:26.628Z,10.67
2018-12-22T06:55:53.380Z,10.70
2018-12-22T06:58:20.231Z,10.62
2018-12-22T07:00:46.996Z,10.52
2018-12-22T07:03:13.755Z,10.63
2018-12-22T07:05:40.496Z,10.80
2018-12-22T07:08:07.284Z,10.73
2018-12-22T07:10:34.109Z,10.67
2018-12-22T07:13:00.896Z,10.65
2018-12-22T07:15:27.636Z,10.78
2018-12-22T07:17:54.392Z,10.77
2018-12-22T07:20:21.128Z,10.86
2018-12-22T07:22:47.892Z,10.78
2018-12-22T07:25:14.616Z,10.88
2018-12-22T07:27:41.381Z,10.87
2018-12-22T07:30:09.143Z,10.68
2018-12-22T07:32:35.929Z,10.62
2018-12-22T07:35:02.728Z,10.53
2018-12-22T07:37:29.612Z,10.53
2018-12-22T07:39:56.508Z,10.47
2018-12-22T07:42:23.301Z,10.46
2018-12-22T07:44:50.073Z,10.40
2018-12-22T07:48:58.347Z,10.41
2018-12-22T07:51:25.181Z,10.51
2018-12-22T07:53:51.936Z,10.42
2018-12-22T07:56:18.756Z,10.46
2018-12-22T07:58:45.521Z,10.52
2018-12-22T08:01:12.264Z,10.50
2018-12-22T08:03:39.090Z,10.48
2018-12-22T08:06:05.836Z,10.54
2018-12-22T08:08:32.616Z,10.56
2018-12-22T08:10:59.348Z,10.76
2018-12-22T08:13:26.097Z,10.80
2018-12-22T08:15:52.841Z,10.82
2018-12-22T08:18:19.624Z,10.83
2018-12-22T08:20:46.544Z,10.75
2018-12-22T08:23:13.332Z,10.81
2018-12-22T08:25:40.147Z,10.82
2018-12-22T08:28:06.933Z,10.88
2018-12-22T08:30:33.679Z,10.99
2018-12-22T08:33:00.465Z,10.98
2018-12-22T08:35:27.203Z,10.98
2018-12-22T08:37:53.988Z,11.05
2018-12-22T08:40:20.729Z,11.06
2018-12-22T08:42:47.495Z,11.03
2018-12-22T08:45:14.260Z,11.13
2018-12-22T08:47:40.996Z,11.21
2018-12-22T08:50:09.565Z,11.22
2018-12-22T08:52:35.937Z,11.20
2018-12-22T08:55:02.868Z,11.19
2018-12-22T08:57:29.622Z,11.17
2018-12-22T08:59:56.371Z,11.16
2018-12-22T09:02:23.137Z,11.12
2018-12-22T09:04:49.893Z,11.20
2018-12-22T09:07:16.641Z,11.13
2018-12-22T09:09:43.416Z,11.09
2018-12-22T09:12:10.257Z,11.07
2018-12-22T09:14:37.029Z,11.09
2018-12-22T09:17:03.776Z,11.17
2018-12-22T09:19:30.544Z,11.20
2018-12-22T09:21:57.276Z,11.28
2018-12-22T09:24:24.032Z,11.22
2018-12-22T09:26:50.792Z,11.24
2018-12-22T09:29:17.565Z,11.20
2018-12-22T09:31:44.304Z,11.29
2018-12-22T09:34:13.392Z,11.26
2018-12-22T09:36:37.877Z,11.27
2018-12-22T09:39:06.533Z,11.41
2018-12-22T09:41:33.275Z,11.30
2018-12-22T09:44:00.028Z,11.27
2018-12-22T09:46:26.765Z,11.30
2018-12-22T09:48:53.620Z,11.26
2018-12-22T09:51:20.351Z,11.33
2018-12-22T09:53:47.157Z,11.32
2018-12-22T09:56:13.912Z,11.32
2018-12-22T09:58:40.672Z,11.38
2018-12-22T10:01:09.392Z,11.36
2018-12-22T10:03:34.168Z,11.40
2018-12-22T10:06:00.912Z,11.39
2018-12-22T10:08:27.672Z,11.43
2018-12-22T10:10:54.408Z,11.44
2018-12-22T10:13:21.176Z,11.51
2018-12-22T10:15:47.912Z,11.53
2018-12-22T10:18:14.675Z,11.48
2018-12-22T10:20:41.433Z,11.51
2018-12-22T10:23:08.170Z,11.50
2018-12-22T10:25:34.940Z,11.46
2018-12-22T10:28:01.704Z,11.52
2018-12-22T10:30:28.483Z,11.53
2018-12-22T10:32:55.228Z,11.54
2018-12-22T10:35:26.777Z,11.56
2018-12-22T10:37:53.553Z,11.59
2018-12-22T10:40:20.324Z,11.59
2018-12-22T10:42:47.063Z,11.62
2018-12-22T10:45:13.816Z,11.55
2018-12-22T10:47:40.547Z,11.58
2018-12-22T10:50:07.313Z,11.53
2018-12-22T10:52:34.073Z,11.54
2018-12-22T10:55:00.841Z,11.54
2018-12-22T10:57:27.578Z,11.47
2018-12-22T10:59:54.344Z,11.37
2018-12-22T11:02:21.076Z,11.34
2018-12-22T11:04:49.380Z,11.29
2018-12-22T11:07:14.920Z,11.29
2018-12-22T11:09:41.678Z,11.20
2018-12-22T11:12:08.425Z,11.07
2018-12-22T11:14:35.172Z,11.00
2018-12-22T11:17:01.911Z,10.92
2018-12-22T11:19:28.661Z,10.81
2018-12-22T11:21:55.412Z,10.92
2018-12-22T11:24:22.287Z,10.95
2018-12-22T11:26:49.039Z,10.93
2018-12-22T11:29:15.903Z,10.95
2018-12-22T11:31:42.637Z,10.92
2018-12-22T11:34:09.392Z,10.81
2018-12-22T11:36:36.131Z,10.80
2018-12-22T11:39:03.292Z,10.69
2018-12-22T11:41:30.103Z,10.34
2018-12-22T11:43:56.868Z,10.30
2018-12-22T11:46:24.076Z,10.29
2018-12-22T11:48:58.300Z,10.31
2018-12-22T11:51:25.045Z,10.31
2018-12-22T11:53:51.812Z,10.27
2018-12-22T11:56:18.553Z,10.31
2018-12-22T11:58:45.319Z,10.29
2018-12-22T12:01:12.064Z,10.38
2018-12-22T12:03:38.807Z,10.38
2018-12-22T12:06:05.572Z,10.44
2018-12-22T12:08:32.320Z,10.64
2018-12-22T12:11:00.519Z,10.60
2018-12-22T12:13:25.833Z,10.60
2018-12-22T12:16:11.161Z,10.79
2018-12-22T12:18:44.664Z,10.98
2018-12-22T12:21:11.420Z,11.13
2018-12-22T12:23:38.268Z,11.17
2018-12-22T12:26:05.036Z,11.11
2018-12-22T12:28:31.794Z,11.13
2018-12-22T12:30:58.550Z,11.11
2018-12-22T12:33:25.285Z,11.07
2018-12-22T12:35:52.052Z,11.07
2018-12-22T12:38:18.816Z,11.08
2018-12-22T12:40:45.579Z,11.06
2018-12-22T12:43:12.364Z,11.09
2018-12-22T12:45:39.120Z,11.07
2018-12-22T12:48:05.886Z,11.02
2018-12-22T12:50:32.633Z,10.93
2018-12-22T12:52:59.390Z,10.85
2018-12-22T12:55:26.149Z,11.05
2018-12-22T12:57:52.888Z,10.88
2018-12-22T13:00:19.684Z,10.99
2018-12-22T13:02:46.520Z,11.12
2018-12-22T13:05:13.289Z,11.09
2018-12-22T13:07:40.020Z,10.95
2018-12-22T13:10:08.876Z,11.09
2018-12-22T13:12:48.806Z,11.25
2018-12-22T13:15:15.585Z,11.37
2018-12-22T13:17:42.332Z,11.33
2018-12-22T13:20:09.588Z,11.18
2018-12-22T13:22:36.411Z,11.28
2018-12-22T13:25:03.300Z,11.27
2018-12-22T13:27:30.052Z,11.26
2018-12-22T13:29:56.891Z,11.12
2018-12-22T13:32:23.658Z,11.13
2018-12-22T13:34:50.600Z,11.08
2018-12-22T13:37:17.342Z,11.09
2018-12-22T13:39:44.096Z,11.11
2018-12-22T13:42:10.840Z,11.08
2018-12-22T13:44:37.620Z,11.12
2018-12-22T13:47:04.369Z,11.06
2018-12-22T13:49:31.371Z,11.18
2018-12-22T13:51:58.188Z,11.23
2018-12-22T13:54:25.328Z,11.24
2018-12-22T13:56:52.258Z,11.22
2018-12-22T13:59:19.000Z,11.15
2018-12-22T14:01:49.869Z,11.07
2018-12-22T14:04:16.640Z,11.09
2018-12-22T14:06:44.580Z,11.12
2018-12-22T14:09:11.773Z,11.27
2018-12-22T14:11:39.491Z,11.40
2018-12-22T14:14:07.233Z,11.29
2018-12-22T14:16:49.161Z,11.35
2018-12-22T14:19:16.009Z,11.41
2018-12-22T14:21:42.796Z,11.35
2018-12-22T14:24:13.761Z,11.45
2018-12-22T14:26:40.572Z,11.46
2018-12-22T14:29:07.308Z,11.69
2018-12-22T14:31:34.163Z,11.42
2018-12-22T14:34:05.361Z,11.37
2018-12-22T14:36:32.120Z,11.32
2018-12-22T14:38:58.860Z,11.33
2018-12-22T14:41:25.616Z,11.16
2018-12-22T14:43:52.368Z,11.10
2018-12-22T14:46:19.117Z,11.00
2018-12-22T14:48:45.856Z,11.03
2018-12-22T14:51:12.616Z,10.97
2018-12-22T14:53:39.346Z,11.09
2018-12-22T14:56:06.721Z,10.87
2018-12-22T14:58:35.012Z,10.77
2018-12-22T15:01:01.777Z,10.86
2018-12-22T15:03:28.513Z,10.92
2018-12-22T15:05:55.292Z,11.16
2018-12-22T15:08:22.032Z,11.34
2018-12-22T15:10:48.804Z,11.08
2018-12-22T15:13:15.551Z,10.98
2018-12-22T15:15:42.320Z,10.89
2018-12-22T15:18:09.064Z,10.95
2018-12-22T15:20:35.857Z,11.18
2018-12-22T15:23:05.176Z,11.39
2018-12-22T15:25:32.065Z,11.12
2018-12-22T15:27:58.864Z,11.12
2018-12-22T15:30:25.685Z,11.01
2018-12-22T15:32:54.802Z,10.90
2018-12-22T15:35:19.244Z,10.71
2018-12-22T15:37:46.026Z,10.51
2018-12-22T15:40:12.813Z,10.56
2018-12-22T15:42:39.565Z,10.46
2018-12-22T15:45:09.128Z,10.53
2018-12-22T15:47:35.878Z,10.54
2018-12-22T15:50:03.000Z,10.62
2018-12-22T15:52:29.864Z,10.78
2018-12-22T15:54:56.701Z,10.66
2018-12-22T15:57:23.549Z,10.65
2018-12-22T15:59:50.282Z,10.55
2018-12-22T16:02:18.860Z,10.60
2018-12-22T16:04:43.797Z,10.71
2018-12-22T16:07:10.564Z,10.82
2018-12-22T16:09:37.313Z,10.67
2018-12-22T16:12:04.076Z,10.56
2018-12-22T16:14:30.824Z,10.38
2018-12-22T16:16:57.585Z,10.52
2018-12-22T16:19:24.324Z,10.64
2018-12-22T16:21:51.132Z,10.62
2018-12-22T16:24:17.876Z,10.51
2018-12-22T16:26:44.644Z,10.49
2018-12-22T16:29:15.024Z,10.59
2018-12-22T16:31:41.781Z,10.77
2018-12-22T16:34:08.529Z,10.66
2018-12-22T16:36:35.380Z,10.77
2018-12-22T16:39:02.173Z,10.69
2018-12-22T16:41:28.927Z,10.62
2018-12-22T16:43:55.664Z,10.69
2018-12-22T16:46:22.443Z,10.67
2018-12-22T16:48:49.172Z,10.58
2018-12-22T16:51:16.213Z,10.61
2018-12-22T16:53:42.958Z,10.53
2018-12-22T16:56:09.821Z,10.68
2018-12-22T16:58:38.785Z,10.63
2018-12-22T17:01:15.205Z,10.73
2018-12-22T17:03:42.076Z,10.83
2018-12-22T17:06:09.666Z,10.83
2018-12-22T17:08:36.405Z,10.86
2018-12-22T17:11:04.664Z,10.87
2018-12-22T17:13:31.414Z,10.81
2018-12-22T17:15:59.332Z,10.75
2018-12-22T17:18:27.116Z,10.85
2018-12-22T17:20:58.225Z,10.76
2018-12-22T17:23:47.312Z,10.76
2018-12-22T17:26:14.076Z,10.82
2018-12-22T17:28:40.981Z,10.80
2018-12-22T17:31:07.804Z,10.79
2018-12-22T17:33:36.281Z,10.65
2018-12-22T17:36:01.383Z,10.68
2018-12-22T17:38:28.402Z,10.56
2018-12-22T17:40:56.692Z,10.70
2018-12-22T17:43:23.445Z,10.80
2018-12-22T17:45:50.281Z,10.94
2018-12-22T17:48:17.032Z,10.92
2018-12-22T17:50:43.783Z,11.00
2018-12-22T17:53:10.542Z,11.15
2018-12-22T17:55:37.329Z,10.86
2018-12-22T17:58:04.401Z,10.39
2018-12-22T18:00:31.137Z,10.20
2018-12-22T18:02:57.892Z,10.23
2018-12-22T18:05:24.713Z,10.37
2018-12-22T18:07:52.341Z,10.45
2018-12-22T18:10:19.097Z,10.26
2018-12-22T18:12:45.860Z,10.35
2018-12-22T18:15:15.820Z,10.27
2018-12-22T18:17:42.577Z,10.61
2018-12-22T18:20:09.356Z,10.32
2018-12-22T18:22:36.117Z,10.49
2018-12-22T18:25:03.169Z,10.50
2018-12-22T18:27:29.932Z,10.28
2018-12-22T18:29:56.666Z,10.26
2018-12-22T18:32:23.468Z,10.06
2018-12-22T18:34:50.209Z,10.08
2018-12-22T18:37:16.969Z,10.06
2018-12-22T18:39:43.768Z,10.05
2018-12-22T18:42:10.756Z,10.06
2018-12-22T18:44:37.491Z,10.23
2018-12-22T18:47:04.325Z,10.19
2018-12-22T18:49:31.092Z,10.17
2018-12-22T18:51:57.859Z,10.17
2018-12-22T18:54:24.593Z,10.29
2018-12-22T18:56:51.359Z,10.37
2018-12-22T18:59:19.052Z,10.56
2018-12-22T19:01:45.812Z,10.33
2018-12-22T19:04:12.548Z,10.37
2018-12-22T19:06:39.300Z,10.34
2018-12-22T19:09:10.009Z,10.30
2018-12-22T19:11:36.772Z,10.32
2018-12-22T19:14:03.632Z,10.61
2018-12-22T19:16:30.380Z,10.17
2018-12-22T19:18:57.143Z,10.11
2018-12-22T19:21:23.879Z,9.84
2018-12-22T19:23:50.645Z,9.78
2018-12-22T19:26:17.399Z,9.72
2018-12-22T19:28:44.149Z,9.69
2018-12-22T19:31:10.885Z,9.66
2018-12-22T19:33:37.632Z,9.68
2018-12-22T19:36:04.384Z,9.76
2018-12-22T19:38:31.156Z,9.90
2018-12-22T19:40:57.916Z,9.92
2018-12-22T19:43:24.684Z,10.40
2018-12-22T19:45:51.444Z,10.59
2018-12-22T19:48:18.214Z,10.52
2018-12-22T19:50:44.958Z,10.59
2018-12-22T19:53:11.741Z,10.57
2018-12-22T19:55:38.497Z,10.62
2018-12-22T19:58:05.252Z,10.68
2018-12-22T20:00:32.052Z,10.65
2018-12-22T20:02:58.812Z,10.68
2018-12-22T20:05:25.546Z,10.60
2018-12-22T20:07:52.316Z,10.51
2018-12-22T20:10:19.093Z,10.60
2018-12-22T20:12:45.838Z,10.52
2018-12-22T20:15:12.575Z,10.51
2018-12-22T20:17:39.328Z,10.55
2018-12-22T20:20:06.911Z,10.54
2018-12-22T20:22:33.720Z,10.42
2018-12-22T20:25:00.457Z,10.25
2018-12-22T20:27:27.221Z,10.28
2018-12-22T20:29:53.985Z,10.43
2018-12-22T20:32:20.755Z,10.31
2018-12-22T20:34:47.503Z,10.90
2018-12-22T20:37:14.368Z,10.31
2018-12-22T20:39:41.104Z,10.47
2018-12-22T20:42:07.864Z,10.36
2018-12-22T20:44:34.619Z,10.46
2018-12-22T20:47:01.369Z,10.76
2018-12-22T20:49:28.112Z,10.46
2018-12-22T20:51:54.892Z,10.54
2018-12-22T20:54:21.628Z,10.32
2018-12-22T20:56:48.396Z,10.23
2018-12-22T20:59:15.137Z,10.17
2018-12-22T21:01:41.892Z,10.08
2018-12-22T21:04:08.644Z,9.88
2018-12-22T21:06:35.409Z,9.95
2018-12-22T21:09:02.296Z,9.68
2018-12-22T21:11:29.057Z,9.88
2018-12-22T21:13:55.821Z,10.02
2018-12-22T21:16:22.560Z,10.19
2018-12-22T21:18:49.330Z,10.23
2018-12-22T21:21:16.098Z,10.26
2018-12-22T21:23:42.856Z,10.19
2018-12-22T21:26:09.608Z,10.28
2018-12-22T21:28:38.122Z,10.21
2018-12-22T21:31:03.096Z,10.34
2018-12-22T21:33:29.904Z,10.19
2018-12-22T21:35:56.652Z,10.04
2018-12-22T21:38:23.428Z,10.53
2018-12-22T21:40:50.208Z,10.57
2018-12-22T21:43:16.916Z,10.31
2018-12-22T21:45:43.664Z,10.28
2018-12-22T21:48:10.424Z,10.12
2018-12-22T21:50:37.180Z,10.15
2018-12-22T21:53:03.931Z,10.21
2018-12-22T21:55:30.724Z,10.45
2018-12-22T21:57:57.433Z,10.14
2018-12-22T22:00:24.177Z,9.77
2018-12-22T22:02:50.928Z,9.72
2018-12-22T22:05:17.674Z,9.82
2018-12-22T22:07:44.432Z,9.90
2018-12-22T22:10:11.241Z,10.00
2018-12-22T22:12:38.001Z,10.20
2018-12-22T22:15:04.764Z,9.88
2018-12-22T22:17:31.512Z,9.71
2018-12-22T22:19:58.248Z,9.67
2018-12-22T22:22:25.764Z,9.65
2018-12-22T22:24:51.735Z,9.75
2018-12-22T22:27:18.484Z,9.76
2018-12-22T22:29:45.224Z,9.88
2018-12-22T22:32:11.981Z,9.88
2018-12-22T22:34:45.564Z,9.75
2018-12-22T22:37:05.484Z,9.74
2018-12-22T22:39:32.265Z,9.66
2018-12-22T22:41:59.012Z,9.63
2018-12-22T22:44:25.770Z,9.63
2018-12-22T22:46:52.555Z,9.69
2018-12-22T22:49:19.320Z,9.73
2018-12-22T22:51:46.061Z,9.80
2018-12-22T22:54:12.816Z,9.81
2018-12-22T22:56:39.576Z,9.78
2018-12-22T22:59:06.328Z,9.82
2018-12-22T23:01:33.063Z,9.78
2018-12-22T23:03:59.840Z,9.72
2018-12-22T23:06:26.617Z,9.72
2018-12-22T23:08:53.384Z,9.70
2018-12-22T23:11:20.113Z,9.67
2018-12-22T23:13:46.953Z,9.67
2018-12-22T23:16:13.692Z,9.65
2018-12-22T23:18:40.448Z,9.48
2018-12-22T23:21:07.203Z,9.55
2018-12-22T23:23:33.988Z,9.52
2018-12-22T23:26:00.758Z,9.64
2018-12-22T23:28:27.492Z,9.37
2018-12-22T23:30:54.261Z,9.35
2018-12-22T23:33:21.026Z,9.36
2018-12-22T23:35:47.805Z,9.31
2018-12-22T23:38:14.577Z,9.26
2018-12-22T23:40:41.341Z,9.17
2018-12-22T23:43:08.080Z,9.22
2018-12-22T23:45:34.803Z,9.18
2018-12-22T23:48:01.577Z,9.14
2018-12-22T23:50:28.333Z,9.17
2018-12-22T23:52:55.204Z,9.10
2018-12-22T23:55:21.956Z,9.12
2018-12-22T23:57:48.707Z,9.09
